createdAt,value
2023-03-08T00:02:19.144Z,9.05
2023-03-08T00:04:46.145Z,8.57
2023-03-08T00:07:13.058Z,7.30
2023-03-08T00:09:40.045Z,9.43
2023-03-08T00:12:07.660Z,8.85
2023-03-08T00:14:34.545Z,6.80
2023-03-08T00:17:02.641Z,8.15
2023-03-08T00:19:29.759Z,6.18
2023-03-08T00:21:58.128Z,8.18
2023-03-08T00:24:25.147Z,5.97
2023-03-08T00:26:52.091Z,7.38
2023-03-08T00:29:19.004Z,6.47
2023-03-08T00:31:45.966Z,7.28
2023-03-08T00:34:12.912Z,5.57
2023-03-08T00:36:39.804Z,5.97
2023-03-08T00:39:06.712Z,6.82
2023-03-08T00:41:33.684Z,6.05
2023-03-08T00:44:00.613Z,6.07
2023-03-08T00:46:27.505Z,6.57
2023-03-08T00:48:54.526Z,8.57
2023-03-08T00:51:22.884Z,7.38
2023-03-08T00:53:50.280Z,6.95
2023-03-08T00:56:17.273Z,6.22
2023-03-08T00:58:44.290Z,5.38
2023-03-08T01:01:15.669Z,6.25
2023-03-08T01:03:42.689Z,7.28
2023-03-08T01:06:12.896Z,6.25
2023-03-08T01:08:42.909Z,6.28
2023-03-08T01:11:21.966Z,8.50
2023-03-08T01:13:50.152Z,7.63
2023-03-08T01:16:35.171Z,8.13
2023-03-08T01:19:02.166Z,6.07
2023-03-08T01:21:31.330Z,7.88
2023-03-08T01:23:58.796Z,7.22
2023-03-08T01:26:27.169Z,8.80
2023-03-08T01:28:54.439Z,7.63
2023-03-08T01:31:27.123Z,8.57
2023-03-08T01:33:54.865Z,7.13
2023-03-08T01:36:24.817Z,11.15
2023-03-08T01:38:52.493Z,8.00
2023-03-08T01:41:27.952Z,7.13
2023-03-08T01:43:54.999Z,9.13
2023-03-08T01:46:26.569Z,7.55
2023-03-08T01:49:05.423Z,8.98
2023-03-08T01:51:50.881Z,6.90
2023-03-08T01:54:39.791Z,9.10
2023-03-08T01:57:15.546Z,7.93
2023-03-08T01:59:43.089Z,8.40
2023-03-08T02:02:10.293Z,10.68
2023-03-08T02:04:38.081Z,7.28
2023-03-08T02:07:04.982Z,9.10
2023-03-08T02:09:31.972Z,8.32
2023-03-08T02:12:03.415Z,11.48
2023-03-08T02:14:30.324Z,10.68
2023-03-08T02:16:57.223Z,7.85
2023-03-08T02:19:48.538Z,8.10
2023-03-08T02:22:17.273Z,8.23
2023-03-08T02:24:44.229Z,12.45
2023-03-08T02:27:26.207Z,11.48
2023-03-08T02:29:53.107Z,9.52
2023-03-08T02:32:20.243Z,9.23
2023-03-08T02:34:47.130Z,8.50
2023-03-08T02:37:13.969Z,8.68
2023-03-08T02:39:40.814Z,12.25
2023-03-08T02:42:07.976Z,11.52
2023-03-08T02:44:34.803Z,8.18
2023-03-08T02:47:01.683Z,11.02
2023-03-08T02:49:28.565Z,9.98
2023-03-08T02:51:55.401Z,8.07
2023-03-08T02:54:22.317Z,10.00
2023-03-08T02:56:49.118Z,9.80
2023-03-08T02:59:16.003Z,11.55
2023-03-08T03:01:43.169Z,10.60
2023-03-08T03:04:10.097Z,8.98
2023-03-08T03:06:36.918Z,9.55
2023-03-08T03:09:07.841Z,10.43
2023-03-08T03:11:34.706Z,14.20
2023-03-08T03:14:02.036Z,10.27
2023-03-08T03:16:28.942Z,11.63
2023-03-08T03:18:56.718Z,12.07
2023-03-08T03:21:24.462Z,9.98
2023-03-08T03:23:51.514Z,9.98
2023-03-08T03:26:21.820Z,11.55
2023-03-08T03:28:49.117Z,11.60
2023-03-08T03:31:21.056Z,12.13
2023-03-08T03:33:48.994Z,12.63
2023-03-08T03:36:19.310Z,12.63
2023-03-08T03:38:47.005Z,11.90
2023-03-08T03:41:17.161Z,13.75
2023-03-08T03:43:44.010Z,11.40
2023-03-08T03:46:16.974Z,11.40
2023-03-08T03:48:44.225Z,12.23
2023-03-08T03:51:14.311Z,12.48
2023-03-08T03:53:41.521Z,14.30
2023-03-08T03:56:15.409Z,14.73
2023-03-08T03:58:42.927Z,13.65
2023-03-08T04:01:12.532Z,16.23
2023-03-08T04:03:39.435Z,11.70
2023-03-08T04:06:12.301Z,14.98
2023-03-08T04:08:42.197Z,13.32
2023-03-08T04:11:15.385Z,13.95
2023-03-08T04:13:42.406Z,14.97
2023-03-08T04:16:30.959Z,14.45
2023-03-08T04:19:00.598Z,17.90
2023-03-08T04:21:28.331Z,14.93
2023-03-08T04:23:55.988Z,14.57
2023-03-08T04:26:23.914Z,17.45
2023-03-08T04:28:50.840Z,16.45
2023-03-08T04:31:23.804Z,16.20
2023-03-08T04:33:51.730Z,17.80
2023-03-08T04:36:19.409Z,15.65
2023-03-08T04:38:47.232Z,13.82
2023-03-08T04:41:14.587Z,17.55
2023-03-08T04:43:45.630Z,18.63
2023-03-08T04:46:12.979Z,15.88
2023-03-08T04:48:40.310Z,15.48
2023-03-08T04:51:08.852Z,17.80
2023-03-08T04:53:36.283Z,15.15
2023-03-08T04:56:03.559Z,16.63
2023-03-08T04:58:30.838Z,16.23
2023-03-08T05:01:00.106Z,18.92
2023-03-08T05:03:27.046Z,17.92
2023-03-08T05:05:55.982Z,16.52
2023-03-08T05:08:23.344Z,17.08
2023-03-08T05:11:00.532Z,16.33
2023-03-08T05:13:32.270Z,20.08
2023-03-08T05:15:59.533Z,17.88
2023-03-08T05:18:26.503Z,19.20
2023-03-08T05:20:58.245Z,18.90
2023-03-08T05:23:28.520Z,18.00
2023-03-08T05:25:57.705Z,18.88
2023-03-08T05:28:26.255Z,19.08
2023-03-08T05:31:06.213Z,17.25
2023-03-08T05:33:34.022Z,17.27
2023-03-08T05:36:01.087Z,17.92
2023-03-08T05:38:28.554Z,18.45
2023-03-08T05:40:55.473Z,19.15
2023-03-08T05:43:22.337Z,18.33
2023-03-08T05:46:00.576Z,19.40
2023-03-08T05:48:27.542Z,20.30
2023-03-08T05:50:54.947Z,20.20
2023-03-08T05:53:22.673Z,18.27
2023-03-08T05:55:49.689Z,17.23
2023-03-08T05:58:16.587Z,19.73
2023-03-08T06:00:43.431Z,19.55
2023-03-08T06:03:10.409Z,18.77
2023-03-08T06:05:37.629Z,18.88
2023-03-08T06:08:04.742Z,17.88
2023-03-08T06:10:31.576Z,17.63
2023-03-08T06:12:58.398Z,16.52
2023-03-08T06:15:25.445Z,16.80
2023-03-08T06:17:53.905Z,17.73
2023-03-08T06:20:20.800Z,17.10
2023-03-08T06:22:47.707Z,15.93
2023-03-08T06:25:14.704Z,16.35
2023-03-08T06:27:41.558Z,16.73
2023-03-08T06:30:09.038Z,17.30
2023-03-08T06:32:37.659Z,17.25
2023-03-08T06:35:05.300Z,14.43
2023-03-08T06:37:36.201Z,13.20
2023-03-08T06:40:05.856Z,15.05
2023-03-08T06:42:41.166Z,12.15
2023-03-08T06:45:09.926Z,13.25
2023-03-08T06:47:36.831Z,13.77
2023-03-08T06:50:04.211Z,13.43
2023-03-08T06:52:37.898Z,12.10
2023-03-08T06:55:05.584Z,13.13
2023-03-08T06:57:32.790Z,10.90
2023-03-08T06:59:59.633Z,9.18
2023-03-08T07:02:26.442Z,8.40
2023-03-08T07:04:53.293Z,8.18
2023-03-08T07:07:20.178Z,7.70
2023-03-08T07:09:46.997Z,8.07
2023-03-08T07:12:13.796Z,8.65
2023-03-08T07:14:40.689Z,7.80
2023-03-08T07:17:07.512Z,10.32
2023-03-08T07:19:34.406Z,11.80
2023-03-08T07:22:01.233Z,8.27
2023-03-08T07:24:28.079Z,9.38
2023-03-08T07:26:54.869Z,8.38
2023-03-08T07:29:21.685Z,8.15
2023-03-08T07:31:48.582Z,8.60
2023-03-08T07:34:15.446Z,8.70
2023-03-08T07:36:42.311Z,8.98
2023-03-08T07:39:09.200Z,8.38
2023-03-08T07:41:36.243Z,10.15
2023-03-08T07:44:03.681Z,9.15
2023-03-08T07:46:31.124Z,10.73
2023-03-08T07:48:58.042Z,8.35
2023-03-08T07:51:25.023Z,9.50
2023-03-08T07:53:52.983Z,9.88
2023-03-08T07:56:21.136Z,11.23
2023-03-08T07:58:48.029Z,12.75
2023-03-08T08:01:14.990Z,14.13
2023-03-08T08:03:42.026Z,12.40
2023-03-08T08:06:09.321Z,12.32
2023-03-08T08:08:36.110Z,11.23
2023-03-08T08:11:02.934Z,9.95
2023-03-08T08:13:29.677Z,11.90
2023-03-08T08:16:03.464Z,11.45
2023-03-08T08:18:30.289Z,11.15
2023-03-08T08:21:05.855Z,10.77
2023-03-08T08:23:33.180Z,11.65
2023-03-08T08:26:00.858Z,12.88
2023-03-08T08:28:28.111Z,11.52
2023-03-08T08:31:04.282Z,12.25
2023-03-08T08:33:32.513Z,11.73
2023-03-08T08:36:00.281Z,11.57
2023-03-08T08:38:27.414Z,15.07
2023-03-08T08:40:54.270Z,14.40
2023-03-08T08:43:21.048Z,12.90
2023-03-08T08:45:53.274Z,13.88
2023-03-08T08:48:20.117Z,13.18
2023-03-08T08:50:46.958Z,11.95
2023-03-08T08:53:13.947Z,11.40
2023-03-08T08:55:42.179Z,12.95
2023-03-08T08:58:10.109Z,16.33
2023-03-08T09:00:37.374Z,19.10
2023-03-08T09:03:05.565Z,14.48
2023-03-08T09:05:33.914Z,16.02
2023-03-08T09:08:02.125Z,13.65
2023-03-08T09:10:30.850Z,14.35
2023-03-08T09:12:59.194Z,14.40
2023-03-08T09:15:26.975Z,15.88
2023-03-08T09:17:54.153Z,13.90
2023-03-08T09:20:23.394Z,16.02
2023-03-08T09:22:50.632Z,13.75
2023-03-08T09:25:19.610Z,16.50
2023-03-08T09:27:48.932Z,14.23
2023-03-08T09:30:17.230Z,13.68
2023-03-08T09:32:45.921Z,12.40
2023-03-08T09:35:12.902Z,14.05
2023-03-08T09:37:39.839Z,12.80
2023-03-08T09:40:10.027Z,12.25
2023-03-08T09:42:38.390Z,9.43
2023-03-08T09:45:23.159Z,11.07
2023-03-08T09:48:06.905Z,12.70
2023-03-08T09:50:40.203Z,11.45
2023-03-08T09:53:50.432Z,10.63
2023-03-08T09:56:28.530Z,11.70
2023-03-08T09:59:16.629Z,14.07
2023-03-08T10:02:12.950Z,13.13
2023-03-08T10:05:11.918Z,12.43
2023-03-08T10:07:49.862Z,12.70
2023-03-08T10:10:54.121Z,11.00
2023-03-08T10:13:23.751Z,18.30
2023-03-08T10:15:53.370Z,16.63
2023-03-08T10:18:40.832Z,13.80
2023-03-08T10:21:11.920Z,12.32
2023-03-08T10:23:41.484Z,15.82
2023-03-08T10:26:13.511Z,17.58
2023-03-08T10:28:40.456Z,15.18
2023-03-08T10:31:28.187Z,14.73
2023-03-08T10:34:11.683Z,10.25
2023-03-08T10:36:58.449Z,16.73
2023-03-08T10:39:25.496Z,10.68
2023-03-08T10:41:56.849Z,13.60
2023-03-08T10:44:36.917Z,10.57
2023-03-08T10:47:34.986Z,15.63
2023-03-08T10:50:26.393Z,12.13
2023-03-08T10:52:53.475Z,10.63
2023-03-08T10:55:23.829Z,15.93
2023-03-08T10:57:56.686Z,9.25
2023-03-08T11:00:42.519Z,12.38
2023-03-08T11:03:21.051Z,8.95
2023-03-08T11:06:00.401Z,7.72
2023-03-08T11:08:33.420Z,10.98
2023-03-08T11:11:14.320Z,11.27
2023-03-08T11:13:46.565Z,10.80
2023-03-08T11:16:53.287Z,12.77
2023-03-08T11:19:44.400Z,9.30
2023-03-08T11:22:19.870Z,10.30
2023-03-08T11:24:53.177Z,11.82
2023-03-08T11:27:23.107Z,11.40
2023-03-08T11:30:12.964Z,10.98
2023-03-08T11:32:54.898Z,9.43
2023-03-08T11:35:27.581Z,9.35
2023-03-08T11:38:04.476Z,12.13
2023-03-08T11:40:55.593Z,8.90
2023-03-08T11:43:56.687Z,9.38
2023-03-08T11:46:48.271Z,9.18
2023-03-08T11:49:29.785Z,7.20
2023-03-08T11:52:19.850Z,11.35
2023-03-08T11:55:08.033Z,9.55
2023-03-08T11:57:45.221Z,9.63
2023-03-08T12:00:37.450Z,9.13
2023-03-08T12:03:29.364Z,5.57
2023-03-08T12:06:00.913Z,9.07
2023-03-08T12:08:42.995Z,14.40
2023-03-08T12:11:33.659Z,10.25
2023-03-08T12:14:13.614Z,8.35
2023-03-08T12:16:59.311Z,9.82
2023-03-08T12:19:30.404Z,9.65
2023-03-08T12:22:09.407Z,10.88
2023-03-08T12:25:05.748Z,6.15
2023-03-08T12:27:45.869Z,9.68
2023-03-08T12:30:33.957Z,8.98
2023-03-08T12:33:04.322Z,9.43
2023-03-08T12:35:49.264Z,6.75
2023-03-08T12:38:19.192Z,9.50
2023-03-08T12:40:49.331Z,8.10
2023-03-08T12:43:22.220Z,9.52
2023-03-08T12:46:06.470Z,4.72
2023-03-08T12:51:18.770Z,6.22
2023-03-08T12:53:51.441Z,6.63
2023-03-08T12:56:38.289Z,7.70
2023-03-08T12:59:11.169Z,5.85
2023-03-08T13:01:46.400Z,7.88
2023-03-08T13:04:40.870Z,8.60
2023-03-08T13:07:40.295Z,5.38
2023-03-08T13:10:35.207Z,5.68
2023-03-08T13:13:06.012Z,7.18
2023-03-08T13:15:32.909Z,8.38
2023-03-08T13:18:06.429Z,6.80
2023-03-08T13:20:41.455Z,9.73
2023-03-08T13:23:14.745Z,9.80
2023-03-08T13:26:18.335Z,9.57
2023-03-08T13:28:48.352Z,12.90
2023-03-08T13:31:27.343Z,9.35
2023-03-08T13:33:56.643Z,10.07
2023-03-08T13:36:30.425Z,10.52
2023-03-08T13:39:10.760Z,9.35
2023-03-08T13:41:38.875Z,8.27
2023-03-08T13:44:13.971Z,8.45
2023-03-08T13:46:43.186Z,9.07
2023-03-08T13:49:25.480Z,13.80
2023-03-08T13:51:55.830Z,11.10
2023-03-08T13:54:42.334Z,11.65
2023-03-08T13:57:22.233Z,10.57
2023-03-08T13:59:51.492Z,11.10
2023-03-08T14:02:27.507Z,9.23
2023-03-08T14:04:55.195Z,8.82
2023-03-08T14:07:32.313Z,7.85
2023-03-08T14:09:59.990Z,12.38
2023-03-08T14:12:32.943Z,13.00
2023-03-08T14:15:03.655Z,10.38
2023-03-08T14:17:34.117Z,8.35
2023-03-08T14:20:05.558Z,12.23
2023-03-08T14:22:39.957Z,9.10
2023-03-08T14:25:20.239Z,9.23
2023-03-08T14:27:47.106Z,10.40
2023-03-08T14:30:20.076Z,11.90
2023-03-08T14:33:41.758Z,10.00
2023-03-08T14:36:10.318Z,8.73
2023-03-08T14:38:37.422Z,12.85
2023-03-08T14:41:08.224Z,11.45
2023-03-08T14:43:35.427Z,10.85
2023-03-08T14:46:05.480Z,10.40
2023-03-08T14:48:36.541Z,10.73
2023-03-08T14:51:05.174Z,9.80
2023-03-08T14:53:37.352Z,8.95
2023-03-08T14:56:22.239Z,10.73
2023-03-08T14:58:52.252Z,13.25
2023-03-08T15:01:32.487Z,11.77
2023-03-08T15:03:59.649Z,11.45
2023-03-08T15:06:32.065Z,13.88
2023-03-08T15:09:01.291Z,13.80
2023-03-08T15:11:31.575Z,10.23
2023-03-08T15:13:59.501Z,9.63
2023-03-08T15:16:26.801Z,9.65
2023-03-08T15:18:53.800Z,19.33
2023-03-08T15:21:25.893Z,9.85
2023-03-08T15:23:53.446Z,10.48
2023-03-08T15:26:33.914Z,10.00
2023-03-08T15:29:03.787Z,9.98
2023-03-08T15:31:31.552Z,11.30
2023-03-08T15:33:58.893Z,10.30
2023-03-08T15:36:26.293Z,8.90
2023-03-08T15:38:53.159Z,11.02
2023-03-08T15:41:20.110Z,16.80
2023-03-08T15:43:47.034Z,11.55
2023-03-08T15:46:15.205Z,7.72
2023-03-08T15:48:42.503Z,8.82
2023-03-08T15:51:34.108Z,10.68
2023-03-08T15:54:01.690Z,10.93
2023-03-08T15:56:28.871Z,9.50
2023-03-08T15:58:56.162Z,8.60
2023-03-08T16:01:24.794Z,10.75
2023-03-08T16:03:57.037Z,10.00
2023-03-08T16:06:24.556Z,9.52
2023-03-08T16:08:51.616Z,7.60
2023-03-08T16:11:22.313Z,9.43
2023-03-08T16:13:51.751Z,9.93
2023-03-08T16:16:20.170Z,11.98
2023-03-08T16:18:47.312Z,11.18
2023-03-08T16:21:14.242Z,9.80
2023-03-08T16:23:41.879Z,11.95
2023-03-08T16:26:17.640Z,10.90
2023-03-08T16:28:46.567Z,14.98
2023-03-08T16:31:15.024Z,7.13
2023-03-08T16:33:42.018Z,9.98
2023-03-08T16:36:09.338Z,11.30
2023-03-08T16:38:36.323Z,11.00
2023-03-08T16:41:13.600Z,9.25
2023-03-08T16:43:49.797Z,11.90
2023-03-08T16:46:21.451Z,11.60
2023-03-08T16:48:50.340Z,9.05
2023-03-08T16:51:19.524Z,12.40
2023-03-08T16:53:47.615Z,12.05
2023-03-08T16:56:23.980Z,10.00
2023-03-08T16:58:51.253Z,9.25
2023-03-08T17:01:19.674Z,15.75
2023-03-08T17:03:46.748Z,11.35
2023-03-08T17:06:16.177Z,13.38
2023-03-08T17:08:43.083Z,14.75
2023-03-08T17:11:22.016Z,15.35
2023-03-08T17:13:51.063Z,10.18
2023-03-08T17:16:20.331Z,12.32
2023-03-08T17:18:48.641Z,15.00
2023-03-08T17:21:15.814Z,11.57
2023-03-08T17:23:42.735Z,15.90
2023-03-08T17:26:11.023Z,13.20
2023-03-08T17:28:38.455Z,16.98
2023-03-08T17:31:10.466Z,15.40
2023-03-08T17:33:38.043Z,11.70
2023-03-08T17:36:06.796Z,15.38
2023-03-08T17:38:34.565Z,14.75
2023-03-08T17:41:10.602Z,12.88
2023-03-08T17:43:39.966Z,18.73
2023-03-08T17:46:20.388Z,10.55
2023-03-08T17:48:48.796Z,13.90
2023-03-08T17:51:18.206Z,9.10
2023-03-08T17:53:45.686Z,13.23
2023-03-08T17:56:17.922Z,13.70
2023-03-08T17:58:45.054Z,15.68
2023-03-08T18:01:20.678Z,13.27
2023-03-08T18:03:48.073Z,20.50
2023-03-08T18:06:33.898Z,13.68
2023-03-08T18:09:03.931Z,11.90
2023-03-08T18:11:30.949Z,14.13
2023-03-08T18:13:57.814Z,14.32
2023-03-08T18:16:25.204Z,15.20
2023-03-08T18:18:52.558Z,17.20
2023-03-08T18:21:21.227Z,12.48
2023-03-08T18:23:48.577Z,13.13
2023-03-08T18:26:16.860Z,11.80
2023-03-08T18:28:44.213Z,15.15
2023-03-08T18:31:20.996Z,14.07
2023-03-08T18:33:47.945Z,13.90
2023-03-08T18:36:15.670Z,12.30
2023-03-08T18:38:43.162Z,13.70
2023-03-08T18:41:28.298Z,14.07
2023-03-08T18:43:56.587Z,12.23
2023-03-08T18:46:30.397Z,18.10
2023-03-08T18:49:03.512Z,23.10
2023-03-08T18:51:32.178Z,18.13
2023-03-08T18:53:59.733Z,14.98
2023-03-08T18:56:27.622Z,13.13
2023-03-08T18:58:55.566Z,17.83
2023-03-08T19:01:22.766Z,14.15
2023-03-08T19:03:49.571Z,16.58
2023-03-08T19:06:16.751Z,15.02
2023-03-08T19:08:43.801Z,14.93
2023-03-08T19:11:15.832Z,19.88
2023-03-08T19:13:43.388Z,17.40
2023-03-08T19:16:28.601Z,16.52
2023-03-08T19:18:58.124Z,15.40
2023-03-08T19:21:30.744Z,13.52
2023-03-08T19:23:58.072Z,15.27
2023-03-08T19:26:36.526Z,16.15
2023-03-08T19:29:03.248Z,12.32
2023-03-08T19:31:30.439Z,15.93
2023-03-08T19:33:57.457Z,16.88
2023-03-08T19:36:24.845Z,15.48
2023-03-08T19:38:51.557Z,14.93
2023-03-08T19:41:18.373Z,14.18
2023-03-08T19:43:46.520Z,17.13
2023-03-08T19:46:17.835Z,17.17
2023-03-08T19:48:48.157Z,14.85
2023-03-08T19:51:20.851Z,15.10
2023-03-08T19:53:47.841Z,20.88
2023-03-08T19:56:17.685Z,17.70
2023-03-08T19:58:45.742Z,16.05
2023-03-08T20:01:14.458Z,16.38
2023-03-08T20:03:41.634Z,16.17
2023-03-08T20:17:51.601Z,19.33
2023-03-08T20:20:19.009Z,17.20
2023-03-08T20:22:46.286Z,13.93
2023-03-08T20:25:13.216Z,14.63
2023-03-08T20:27:42.419Z,10.93
2023-03-08T20:30:10.866Z,16.88
2023-03-08T20:32:38.275Z,16.35
2023-03-08T20:35:06.972Z,15.05
2023-03-08T20:37:34.662Z,17.70
2023-03-08T20:40:04.391Z,17.83
2023-03-08T20:42:31.412Z,13.93
2023-03-08T20:44:58.168Z,14.23
2023-03-08T20:47:25.307Z,12.50
2023-03-08T20:49:52.706Z,16.45
2023-03-08T20:52:19.519Z,19.33
2023-03-08T20:54:46.307Z,17.85
2023-03-08T20:57:13.205Z,12.50
2023-03-08T20:59:40.648Z,11.57
2023-03-08T21:02:08.021Z,15.65
2023-03-08T21:04:34.837Z,15.35
2023-03-08T21:07:01.647Z,14.65
2023-03-08T21:09:28.443Z,15.75
2023-03-08T21:11:55.191Z,13.30
2023-03-08T21:14:24.361Z,13.48
2023-03-08T21:16:51.698Z,12.85
2023-03-08T21:19:19.372Z,16.40
2023-03-08T21:21:46.454Z,14.98
2023-03-08T21:24:14.786Z,14.52
2023-03-08T21:26:42.683Z,13.93
2023-03-08T21:29:15.444Z,14.45
2023-03-08T21:31:45.915Z,19.93
2023-03-08T21:34:13.419Z,15.48
2023-03-08T21:36:40.613Z,15.38
2023-03-08T21:39:09.116Z,16.63
2023-03-08T21:41:38.720Z,12.70
2023-03-08T21:44:09.572Z,12.95
2023-03-08T21:46:39.561Z,15.05
2023-03-08T21:49:07.482Z,13.88
2023-03-08T21:51:34.506Z,19.75
2023-03-08T21:54:01.352Z,14.18
2023-03-08T21:56:28.385Z,16.05
2023-03-08T21:58:55.842Z,13.20
2023-03-08T22:01:25.651Z,14.60
2023-03-08T22:03:52.509Z,14.23
2023-03-08T22:06:19.558Z,9.40
2023-03-08T22:08:46.562Z,13.27
2023-03-08T22:11:14.017Z,16.52
2023-03-08T22:13:41.449Z,13.18
2023-03-08T22:16:08.736Z,14.65
2023-03-08T22:18:35.564Z,13.65
2023-03-08T22:21:02.727Z,16.67
2023-03-08T22:23:29.558Z,15.88
2023-03-08T22:25:56.354Z,18.67
2023-03-08T22:28:23.286Z,14.52
2023-03-08T22:30:50.084Z,19.48
2023-03-08T22:33:16.816Z,14.80
2023-03-08T22:35:47.910Z,13.48
2023-03-08T22:38:15.088Z,20.42
2023-03-08T22:40:42.749Z,13.32
2023-03-08T22:43:10.408Z,11.82
2023-03-08T22:45:37.322Z,19.17
2023-03-08T22:48:04.652Z,14.32
2023-03-08T22:50:31.475Z,15.13
2023-03-08T22:52:58.326Z,16.00
2023-03-08T22:55:25.146Z,14.43
2023-03-08T22:57:52.004Z,15.25
2023-03-08T23:00:18.910Z,12.85
2023-03-08T23:02:46.727Z,12.98
2023-03-08T23:05:18.176Z,12.52
2023-03-08T23:07:45.453Z,9.88
2023-03-08T23:10:13.193Z,14.45
2023-03-08T23:12:40.562Z,14.73
2023-03-08T23:15:08.380Z,13.13
2023-03-08T23:17:35.741Z,16.20
2023-03-08T23:20:03.995Z,14.68
2023-03-08T23:22:30.783Z,16.38
2023-03-08T23:24:57.563Z,13.68
2023-03-08T23:27:24.295Z,14.50
2023-03-08T23:29:54.058Z,16.70
2023-03-08T23:32:21.202Z,15.43
2023-03-08T23:34:48.068Z,15.32
2023-03-08T23:37:14.890Z,13.02
2023-03-08T23:39:41.714Z,13.80
2023-03-08T23:42:08.546Z,13.05
2023-03-08T23:44:35.329Z,13.05
2023-03-08T23:47:02.420Z,14.35
2023-03-08T23:49:29.171Z,15.32
2023-03-08T23:51:55.915Z,12.20
2023-03-08T23:54:22.704Z,12.48
2023-03-08T23:56:49.473Z,14.60
2023-03-08T23:59:19.291Z,13.32
